createdAt,value
2022-09-12T00:03:55.930Z,77.49
2022-09-12T00:09:02.054Z,77.50
2022-09-12T00:14:05.344Z,77.38
2022-09-12T00:19:08.437Z,77.74
2022-09-12T00:24:11.687Z,77.88
2022-09-12T00:29:21.824Z,77.77
2022-09-12T00:34:24.519Z,78.11
2022-09-12T00:39:27.302Z,78.11
2022-09-12T00:44:29.908Z,78.43
2022-09-12T00:49:51.672Z,78.32
2022-09-12T00:55:20.267Z,78.67
2022-09-12T01:00:24.882Z,78.77
2022-09-12T01:05:28.952Z,78.71
2022-09-12T01:10:32.576Z,79.03
2022-09-12T01:15:37.705Z,79.21
2022-09-12T01:21:16.037Z,79.48
2022-09-12T01:26:49.521Z,79.78
2022-09-12T01:32:04.545Z,80.18
2022-09-12T01:37:18.013Z,80.11
2022-09-12T01:42:48.378Z,80.15
2022-09-12T01:48:00.571Z,80.33
2022-09-12T01:53:09.645Z,80.29
2022-09-12T01:58:26.389Z,80.57
2022-09-12T02:03:38.119Z,80.67
2022-09-12T02:08:45.597Z,80.85
2022-09-12T02:14:23.305Z,80.83
2022-09-12T02:19:34.103Z,80.76
2022-09-12T02:24:39.538Z,80.85
2022-09-12T02:29:44.658Z,80.85
2022-09-12T02:35:02.224Z,80.92
2022-09-12T02:40:07.177Z,81.26
2022-09-12T02:45:10.484Z,81.21
2022-09-12T02:50:13.277Z,81.36
2022-09-12T02:55:16.574Z,81.49
2022-09-12T03:00:19.240Z,81.31
2022-09-12T03:05:35.373Z,81.18
2022-09-12T03:10:43.148Z,81.04
2022-09-12T03:16:19.706Z,80.78
2022-09-12T03:21:33.503Z,80.63
2022-09-12T03:26:59.137Z,80.49
2022-09-12T03:32:02.258Z,80.38
2022-09-12T03:37:05.405Z,80.33
2022-09-12T03:42:08.166Z,80.45
2022-09-12T03:47:11.479Z,80.56
2022-09-12T03:52:14.692Z,81.11
2022-09-12T03:57:17.446Z,82.54
2022-09-12T04:02:20.236Z,83.39
2022-09-12T04:07:22.985Z,83.86
2022-09-12T04:12:26.186Z,84.20
2022-09-12T04:17:28.956Z,84.80
2022-09-12T04:22:32.809Z,85.04
2022-09-12T04:27:35.666Z,85.55
2022-09-12T04:32:38.405Z,86.12
2022-09-12T04:37:41.139Z,85.91
2022-09-12T04:42:43.807Z,85.82
2022-09-12T04:47:46.839Z,85.74
2022-09-12T04:52:51.780Z,85.49
2022-09-12T04:57:54.654Z,85.91
2022-09-12T05:02:57.466Z,86.31
2022-09-12T05:08:00.227Z,86.99
2022-09-12T05:13:02.880Z,87.20
2022-09-12T05:18:06.368Z,87.30
2022-09-12T05:23:09.104Z,87.35
2022-09-12T05:28:12.195Z,87.49
2022-09-12T05:33:15.464Z,88.29
2022-09-12T05:38:18.295Z,88.92
2022-09-12T05:43:21.126Z,89.75
2022-09-12T05:48:24.325Z,90.87
2022-09-12T05:53:29.265Z,90.60
2022-09-12T05:58:33.204Z,91.58
2022-09-12T06:03:44.646Z,91.97
2022-09-12T06:08:50.019Z,91.95
2022-09-12T06:13:52.990Z,91.73
2022-09-12T06:18:58.685Z,91.84
2022-09-12T06:24:02.086Z,91.94
2022-09-12T06:29:04.997Z,92.16
2022-09-12T06:34:10.537Z,92.47
2022-09-12T06:39:18.935Z,92.35
2022-09-12T06:44:22.487Z,92.57
2022-09-12T06:49:25.213Z,92.45
2022-09-12T06:54:27.909Z,92.36
2022-09-12T06:59:30.659Z,92.23
2022-09-12T07:04:36.772Z,92.20
2022-09-12T07:09:39.477Z,92.44
2022-09-12T07:14:42.117Z,91.86
2022-09-12T07:19:44.868Z,91.60
2022-09-12T07:24:47.975Z,91.01
2022-09-12T07:29:50.676Z,90.95
2022-09-12T07:34:55.609Z,90.71
2022-09-12T07:39:59.351Z,90.14
2022-09-12T07:45:02.052Z,89.53
2022-09-12T07:50:06.784Z,89.39
2022-09-12T07:55:09.621Z,89.41
2022-09-12T08:00:12.990Z,89.64
2022-09-12T08:05:15.731Z,89.20
2022-09-12T08:10:18.445Z,88.46
2022-09-12T08:15:21.736Z,88.60
2022-09-12T08:20:28.259Z,87.85
2022-09-12T08:25:31.175Z,87.49
2022-09-12T08:30:34.025Z,86.86
2022-09-12T08:35:36.747Z,86.37
2022-09-12T08:41:08.931Z,86.33
2022-09-12T08:46:19.623Z,84.94
2022-09-12T08:51:23.007Z,84.14
2022-09-12T08:56:31.464Z,83.85
2022-09-12T09:01:40.470Z,82.96
2022-09-12T09:07:14.552Z,83.10
2022-09-12T09:12:38.242Z,83.29
2022-09-12T09:17:50.178Z,82.67
2022-09-12T09:23:15.485Z,81.43
2022-09-12T09:28:25.974Z,81.35
2022-09-12T09:33:34.230Z,81.57
2022-09-12T09:38:59.943Z,81.56
2022-09-12T09:44:02.900Z,81.56
2022-09-12T09:49:05.821Z,80.00
2022-09-12T09:54:25.689Z,78.52
2022-09-12T09:59:31.322Z,77.04
2022-09-12T10:04:41.062Z,77.25
2022-09-12T10:10:06.166Z,77.61
2022-09-12T10:15:27.972Z,77.40
2022-09-12T10:20:40.542Z,76.50
2022-09-12T10:25:48.156Z,76.92
2022-09-12T10:30:56.187Z,76.88
2022-09-12T10:35:59.265Z,77.41
2022-09-12T10:41:10.329Z,77.49
2022-09-12T10:46:16.411Z,77.30
2022-09-12T10:51:25.204Z,76.67
2022-09-12T10:56:47.749Z,75.52
2022-09-12T11:02:01.726Z,76.11
2022-09-12T11:07:41.929Z,76.47
2022-09-12T11:13:04.682Z,77.05
2022-09-12T11:18:27.104Z,77.64
2022-09-12T11:24:22.031Z,77.21
2022-09-12T11:29:51.102Z,77.44
2022-09-12T11:35:10.391Z,78.02
2022-09-12T11:40:37.622Z,78.66
2022-09-12T11:45:45.291Z,78.43
2022-09-12T11:50:48.082Z,78.32
2022-09-12T11:55:58.012Z,78.36
2022-09-12T12:01:42.146Z,78.57
2022-09-12T12:07:12.097Z,78.04
2022-09-12T12:12:20.792Z,78.06
2022-09-12T12:17:24.917Z,78.39
2022-09-12T12:22:27.824Z,78.09
2022-09-12T12:27:51.281Z,77.91
2022-09-12T12:33:15.944Z,78.12
2022-09-12T12:38:36.257Z,77.95
2022-09-12T12:43:38.982Z,77.78
2022-09-12T12:48:52.995Z,77.59
2022-09-12T12:53:55.783Z,75.86
2022-09-12T12:59:05.464Z,73.71
2022-09-12T13:04:16.002Z,73.34
2022-09-12T13:09:30.928Z,73.23
2022-09-12T13:14:54.487Z,73.10
2022-09-12T13:20:27.740Z,73.73
2022-09-12T13:25:34.706Z,74.07
2022-09-12T13:30:58.649Z,74.14
2022-09-12T13:36:32.532Z,74.14
2022-09-12T13:42:22.063Z,73.98
2022-09-12T13:47:29.579Z,73.59
2022-09-12T13:52:34.598Z,73.12
2022-09-12T13:57:39.588Z,73.25
2022-09-12T14:02:42.375Z,72.68
2022-09-12T14:07:53.386Z,72.25
2022-09-12T14:12:57.327Z,71.94
2022-09-12T14:18:03.454Z,71.74
2022-09-12T14:23:30.266Z,71.89
2022-09-12T14:28:34.406Z,71.57
2022-09-12T14:33:54.305Z,71.61
2022-09-12T14:39:01.701Z,72.11
2022-09-12T14:44:16.778Z,71.55
2022-09-12T14:49:33.566Z,72.26
2022-09-12T14:54:37.919Z,72.79
2022-09-12T14:59:40.765Z,72.54
2022-09-12T15:04:49.150Z,72.71
2022-09-12T15:09:52.390Z,72.57
2022-09-12T15:15:22.867Z,73.00
2022-09-12T15:20:26.128Z,72.94
2022-09-12T15:25:28.821Z,73.02
2022-09-12T15:30:31.453Z,73.05
2022-09-12T15:35:34.173Z,73.33
2022-09-12T15:40:36.922Z,74.07
2022-09-12T15:45:41.480Z,74.18
2022-09-12T15:50:44.272Z,74.74
2022-09-12T15:55:46.978Z,75.23
2022-09-12T16:00:49.630Z,75.57
2022-09-12T16:06:01.553Z,76.05
2022-09-12T16:11:07.673Z,75.55
2022-09-12T16:16:10.766Z,75.68
2022-09-12T16:21:15.433Z,76.31
2022-09-12T16:26:18.674Z,76.68
2022-09-12T16:31:21.660Z,76.99
2022-09-12T16:36:24.411Z,76.84
2022-09-12T16:41:27.187Z,76.99
2022-09-12T16:46:30.061Z,77.12
2022-09-12T16:51:35.985Z,76.83
2022-09-12T16:56:38.694Z,77.06
2022-09-12T17:01:41.434Z,77.17
2022-09-12T17:06:45.256Z,77.38
2022-09-12T17:11:49.635Z,77.24
2022-09-12T17:16:52.559Z,77.87
2022-09-12T17:21:56.888Z,78.58
2022-09-12T17:26:59.595Z,78.95
2022-09-12T17:32:03.291Z,79.17
2022-09-12T17:37:05.980Z,79.27
2022-09-12T17:42:08.637Z,79.38
2022-09-12T17:47:11.616Z,79.56
2022-09-12T17:52:14.260Z,79.48
2022-09-12T17:57:17.018Z,79.81
2022-09-12T18:02:19.815Z,79.98
2022-09-12T18:07:22.503Z,80.52
2022-09-12T18:12:25.154Z,80.56
2022-09-12T18:17:27.922Z,80.53
2022-09-12T18:22:30.585Z,80.58
2022-09-12T18:27:33.285Z,80.59
2022-09-12T18:32:36.166Z,80.72
2022-09-12T18:37:41.038Z,80.79
2022-09-12T18:42:43.760Z,81.32
2022-09-12T18:47:46.655Z,81.49
2022-09-12T18:52:56.637Z,81.51
2022-09-12T18:58:01.762Z,81.73
2022-09-12T19:03:04.453Z,81.96
2022-09-12T19:08:07.141Z,81.71
2022-09-12T19:13:09.934Z,81.67
2022-09-12T19:18:13.204Z,81.41
2022-09-12T19:23:15.885Z,82.08
2022-09-12T19:28:18.615Z,82.14
2022-09-12T19:33:21.724Z,82.30
2022-09-12T19:38:24.649Z,81.49
2022-09-12T19:43:27.387Z,81.47
2022-09-12T19:48:30.661Z,81.53
2022-09-12T19:53:33.771Z,81.68
2022-09-12T19:58:41.217Z,81.40
2022-09-12T20:03:44.269Z,81.42
2022-09-12T20:08:47.088Z,81.85
2022-09-12T20:13:50.699Z,81.92
2022-09-12T20:19:08.511Z,82.15
2022-09-12T20:24:13.455Z,82.15
2022-09-12T20:29:16.863Z,82.38
2022-09-12T20:34:20.926Z,82.48
2022-09-12T20:39:23.726Z,82.88
2022-09-12T20:44:26.511Z,82.64
2022-09-12T20:49:29.193Z,82.79
2022-09-12T20:54:32.420Z,83.12
2022-09-12T20:59:35.233Z,83.03
2022-09-12T21:04:37.931Z,82.99
2022-09-12T21:09:40.617Z,82.97
2022-09-12T21:14:43.369Z,83.39
2022-09-12T21:19:46.088Z,83.35
2022-09-12T21:24:48.793Z,83.23
2022-09-12T21:29:51.528Z,83.59
2022-09-12T21:34:54.189Z,83.68
2022-09-12T21:39:59.048Z,83.52
2022-09-12T21:45:01.692Z,83.21
2022-09-12T21:50:06.861Z,83.53
2022-09-12T21:55:10.111Z,83.68
2022-09-12T22:00:16.542Z,83.44
2022-09-12T22:05:21.361Z,83.56
2022-09-12T22:10:25.140Z,84.11
2022-09-12T22:15:43.069Z,84.44
2022-09-12T22:20:45.939Z,84.73
2022-09-12T22:25:48.572Z,85.03
2022-09-12T22:30:51.883Z,85.17
2022-09-12T22:35:54.587Z,85.62
2022-09-12T22:40:59.204Z,85.47
2022-09-12T22:46:02.029Z,85.50
2022-09-12T22:51:05.314Z,85.37
2022-09-12T22:56:08.408Z,85.08
2022-09-12T23:01:11.641Z,85.00
2022-09-12T23:06:14.419Z,85.02
2022-09-12T23:11:19.227Z,84.91
2022-09-12T23:16:24.886Z,85.16
2022-09-12T23:21:29.970Z,85.47
2022-09-12T23:26:32.679Z,85.65
2022-09-12T23:31:35.372Z,85.38
2022-09-12T23:36:38.231Z,85.35
2022-09-12T23:41:40.924Z,85.12
2022-09-12T23:46:43.562Z,85.43
2022-09-12T23:51:46.277Z,85.15
2022-09-12T23:56:49.259Z,85.38
